sensor_id;sensor_type;location;lat;lon;timestamp;P1;durP1;ratioP1;P2;durP2;ratioP2
70920;SDS011;58572;48.110;19.838;2023-02-11T00:00:16;33.22;;;14.32;;
70920;SDS011;58572;48.110;19.838;2023-02-11T00:02:43;32.45;;;11.43;;
70920;SDS011;58572;48.110;19.838;2023-02-11T00:05:10;25.85;;;11.63;;
70920;SDS011;58572;48.110;19.838;2023-02-11T00:07:39;32.10;;;13.15;;
70920;SDS011;58572;48.110;19.838;2023-02-11T00:10:06;25.10;;;13.05;;
70920;SDS011;58572;48.110;19.838;2023-02-11T00:12:34;32.33;;;13.10;;
70920;SDS011;58572;48.110;19.838;2023-02-11T00:15:01;27.13;;;12.93;;
70920;SDS011;58572;48.110;19.838;2023-02-11T00:17:29;32.63;;;14.95;;
70920;SDS011;58572;48.110;19.838;2023-02-11T00:19:56;29.88;;;13.20;;
70920;SDS011;58572;48.110;19.838;2023-02-11T00:22:23;35.80;;;15.13;;
70920;SDS011;58572;48.110;19.838;2023-02-11T00:24:51;29.55;;;13.27;;
70920;SDS011;58572;48.110;19.838;2023-02-11T00:27:18;31.20;;;13.88;;
70920;SDS011;58572;48.110;19.838;2023-02-11T00:29:45;32.55;;;13.18;;
70920;SDS011;58572;48.110;19.838;2023-02-11T00:32:12;35.20;;;13.82;;
70920;SDS011;58572;48.110;19.838;2023-02-11T00:34:39;34.78;;;14.77;;
70920;SDS011;58572;48.110;19.838;2023-02-11T00:37:06;29.15;;;13.45;;
70920;SDS011;58572;48.110;19.838;2023-02-11T00:39:33;31.17;;;14.50;;
70920;SDS011;58572;48.110;19.838;2023-02-11T00:42:02;36.17;;;15.20;;
70920;SDS011;58572;48.110;19.838;2023-02-11T00:44:29;33.40;;;14.43;;
70920;SDS011;58572;48.110;19.838;2023-02-11T00:46:56;32.42;;;14.10;;
70920;SDS011;58572;48.110;19.838;2023-02-11T00:49:23;36.35;;;16.05;;
70920;SDS011;58572;48.110;19.838;2023-02-11T00:51:50;32.60;;;12.20;;
70920;SDS011;58572;48.110;19.838;2023-02-11T00:54:17;33.35;;;14.15;;
70920;SDS011;58572;48.110;19.838;2023-02-11T00:56:44;34.38;;;14.10;;
70920;SDS011;58572;48.110;19.838;2023-02-11T00:59:12;33.47;;;13.43;;
70920;SDS011;58572;48.110;19.838;2023-02-11T01:01:39;27.45;;;13.35;;
70920;SDS011;58572;48.110;19.838;2023-02-11T01:04:06;30.90;;;12.07;;
70920;SDS011;58572;48.110;19.838;2023-02-11T01:06:33;31.63;;;13.13;;
70920;SDS011;58572;48.110;19.838;2023-02-11T01:09:00;31.95;;;14.40;;
70920;SDS011;58572;48.110;19.838;2023-02-11T01:11:27;33.42;;;13.82;;
70920;SDS011;58572;48.110;19.838;2023-02-11T01:13:54;32.22;;;13.48;;
70920;SDS011;58572;48.110;19.838;2023-02-11T01:16:23;29.70;;;12.50;;
70920;SDS011;58572;48.110;19.838;2023-02-11T01:18:50;26.23;;;11.75;;
70920;SDS011;58572;48.110;19.838;2023-02-11T01:21:17;31.67;;;13.38;;
70920;SDS011;58572;48.110;19.838;2023-02-11T01:23:44;33.15;;;14.32;;
70920;SDS011;58572;48.110;19.838;2023-02-11T01:26:11;30.90;;;13.00;;
70920;SDS011;58572;48.110;19.838;2023-02-11T01:28:38;32.72;;;13.85;;
70920;SDS011;58572;48.110;19.838;2023-02-11T01:31:05;31.52;;;14.00;;
70920;SDS011;58572;48.110;19.838;2023-02-11T01:33:33;35.03;;;13.75;;
70920;SDS011;58572;48.110;19.838;2023-02-11T01:36:00;24.30;;;10.98;;
70920;SDS011;58572;48.110;19.838;2023-02-11T01:38:29;24.70;;;11.82;;
70920;SDS011;58572;48.110;19.838;2023-02-11T01:40:57;24.30;;;11.70;;
70920;SDS011;58572;48.110;19.838;2023-02-11T01:43:25;27.30;;;13.15;;
70920;SDS011;58572;48.110;19.838;2023-02-11T01:46:00;33.53;;;12.93;;
70920;SDS011;58572;48.110;19.838;2023-02-11T01:48:31;33.28;;;13.18;;
70920;SDS011;58572;48.110;19.838;2023-02-11T01:51:05;35.78;;;13.85;;
70920;SDS011;58572;48.110;19.838;2023-02-11T01:53:38;29.58;;;12.77;;
70920;SDS011;58572;48.110;19.838;2023-02-11T01:56:24;31.88;;;14.10;;
70920;SDS011;58572;48.110;19.838;2023-02-11T01:59:10;31.33;;;14.15;;
70920;SDS011;58572;48.110;19.838;2023-02-11T02:01:40;29.75;;;12.07;;
70920;SDS011;58572;48.110;19.838;2023-02-11T02:04:17;29.10;;;12.65;;
70920;SDS011;58572;48.110;19.838;2023-02-11T02:06:47;29.38;;;12.55;;
70920;SDS011;58572;48.110;19.838;2023-02-11T02:09:19;31.55;;;14.65;;
70920;SDS011;58572;48.110;19.838;2023-02-11T02:11:49;36.13;;;13.93;;
70920;SDS011;58572;48.110;19.838;2023-02-11T02:14:16;31.25;;;12.25;;
70920;SDS011;58572;48.110;19.838;2023-02-11T02:16:44;29.50;;;13.65;;
70920;SDS011;58572;48.110;19.838;2023-02-11T02:19:29;32.47;;;14.27;;
70920;SDS011;58572;48.110;19.838;2023-02-11T02:22:26;32.42;;;14.07;;
70920;SDS011;58572;48.110;19.838;2023-02-11T02:25:23;30.45;;;12.52;;
70920;SDS011;58572;48.110;19.838;2023-02-11T02:28:15;39.47;;;16.08;;
70920;SDS011;58572;48.110;19.838;2023-02-11T02:31:05;23.50;;;11.07;;
70920;SDS011;58572;48.110;19.838;2023-02-11T02:33:50;26.75;;;11.75;;
70920;SDS011;58572;48.110;19.838;2023-02-11T02:36:22;29.92;;;13.18;;
70920;SDS011;58572;48.110;19.838;2023-02-11T02:38:54;36.65;;;14.77;;
70920;SDS011;58572;48.110;19.838;2023-02-11T02:41:27;30.15;;;12.52;;
70920;SDS011;58572;48.110;19.838;2023-02-11T02:43:56;32.60;;;13.73;;
70920;SDS011;58572;48.110;19.838;2023-02-11T02:46:25;30.58;;;13.63;;
70920;SDS011;58572;48.110;19.838;2023-02-11T02:48:56;31.33;;;14.95;;
70920;SDS011;58572;48.110;19.838;2023-02-11T02:51:31;31.23;;;13.32;;
70920;SDS011;58572;48.110;19.838;2023-02-11T02:57:29;31.63;;;12.88;;
70920;SDS011;58572;48.110;19.838;2023-02-11T03:00:03;31.17;;;11.98;;
70920;SDS011;58572;48.110;19.838;2023-02-11T03:02:46;29.17;;;12.30;;
70920;SDS011;58572;48.110;19.838;2023-02-11T03:05:22;31.40;;;13.07;;
70920;SDS011;58572;48.110;19.838;2023-02-11T03:07:57;32.33;;;13.73;;
70920;SDS011;58572;48.110;19.838;2023-02-11T03:10:29;35.92;;;15.15;;
70920;SDS011;58572;48.110;19.838;2023-02-11T03:12:58;26.92;;;12.18;;
70920;SDS011;58572;48.110;19.838;2023-02-11T03:15:27;27.05;;;12.30;;
70920;SDS011;58572;48.110;19.838;2023-02-11T03:17:58;33.03;;;12.73;;
70920;SDS011;58572;48.110;19.838;2023-02-11T03:20:28;30.67;;;12.68;;
70920;SDS011;58572;48.110;19.838;2023-02-11T03:23:00;38.05;;;13.55;;
70920;SDS011;58572;48.110;19.838;2023-02-11T03:25:33;47.33;;;17.17;;
70920;SDS011;58572;48.110;19.838;2023-02-11T03:28:04;43.97;;;17.38;;
70920;SDS011;58572;48.110;19.838;2023-02-11T03:30:39;37.90;;;15.75;;
70920;SDS011;58572;48.110;19.838;2023-02-11T03:33:11;39.10;;;15.23;;
70920;SDS011;58572;48.110;19.838;2023-02-11T03:35:46;36.42;;;14.50;;
70920;SDS011;58572;48.110;19.838;2023-02-11T03:38:19;38.35;;;14.77;;
70920;SDS011;58572;48.110;19.838;2023-02-11T03:40:48;45.90;;;18.67;;
70920;SDS011;58572;48.110;19.838;2023-02-11T03:45:47;47.55;;;17.90;;
70920;SDS011;58572;48.110;19.838;2023-02-11T03:48:18;30.17;;;12.35;;
70920;SDS011;58572;48.110;19.838;2023-02-11T03:50:52;28.63;;;12.80;;
70920;SDS011;58572;48.110;19.838;2023-02-11T03:53:21;29.25;;;14.00;;
70920;SDS011;58572;48.110;19.838;2023-02-11T03:55:49;41.88;;;16.33;;
70920;SDS011;58572;48.110;19.838;2023-02-11T03:58:17;34.97;;;15.10;;
70920;SDS011;58572;48.110;19.838;2023-02-11T04:00:44;28.05;;;12.90;;
70920;SDS011;58572;48.110;19.838;2023-02-11T04:03:12;34.60;;;14.07;;
70920;SDS011;58572;48.110;19.838;2023-02-11T04:05:39;31.17;;;12.82;;
70920;SDS011;58572;48.110;19.838;2023-02-11T04:08:07;33.83;;;12.50;;
70920;SDS011;58572;48.110;19.838;2023-02-11T04:10:34;30.70;;;12.55;;
70920;SDS011;58572;48.110;19.838;2023-02-11T04:13:02;26.55;;;12.07;;
70920;SDS011;58572;48.110;19.838;2023-02-11T04:15:29;30.08;;;12.55;;
70920;SDS011;58572;48.110;19.838;2023-02-11T04:17:56;31.58;;;14.07;;
70920;SDS011;58572;48.110;19.838;2023-02-11T04:20:22;29.05;;;11.88;;
70920;SDS011;58572;48.110;19.838;2023-02-11T04:22:49;23.15;;;11.52;;
70920;SDS011;58572;48.110;19.838;2023-02-11T04:25:18;25.45;;;12.27;;
70920;SDS011;58572;48.110;19.838;2023-02-11T04:27:45;31.95;;;14.40;;
70920;SDS011;58572;48.110;19.838;2023-02-11T04:30:12;34.13;;;13.57;;
70920;SDS011;58572;48.110;19.838;2023-02-11T04:32:39;34.10;;;13.15;;
70920;SDS011;58572;48.110;19.838;2023-02-11T04:35:07;30.33;;;13.38;;
70920;SDS011;58572;48.110;19.838;2023-02-11T04:37:34;31.10;;;13.60;;
70920;SDS011;58572;48.110;19.838;2023-02-11T04:40:01;31.95;;;13.57;;
70920;SDS011;58572;48.110;19.838;2023-02-11T04:42:29;32.60;;;13.30;;
70920;SDS011;58572;48.110;19.838;2023-02-11T04:44:56;31.23;;;13.68;;
70920;SDS011;58572;48.110;19.838;2023-02-11T04:47:23;34.50;;;13.95;;
70920;SDS011;58572;48.110;19.838;2023-02-11T04:49:50;29.95;;;13.02;;
70920;SDS011;58572;48.110;19.838;2023-02-11T04:52:17;30.30;;;12.98;;
70920;SDS011;58572;48.110;19.838;2023-02-11T04:54:44;30.08;;;12.82;;
70920;SDS011;58572;48.110;19.838;2023-02-11T04:57:11;31.75;;;13.38;;
70920;SDS011;58572;48.110;19.838;2023-02-11T04:59:39;32.60;;;13.45;;
70920;SDS011;58572;48.110;19.838;2023-02-11T05:02:06;34.35;;;13.25;;
70920;SDS011;58572;48.110;19.838;2023-02-11T05:04:33;28.88;;;11.82;;
70920;SDS011;58572;48.110;19.838;2023-02-11T05:07:00;31.25;;;11.05;;
70920;SDS011;58572;48.110;19.838;2023-02-11T05:09:27;35.92;;;14.50;;
70920;SDS011;58572;48.110;19.838;2023-02-11T05:11:54;37.92;;;14.27;;
70920;SDS011;58572;48.110;19.838;2023-02-11T05:14:21;30.88;;;14.98;;
70920;SDS011;58572;48.110;19.838;2023-02-11T05:16:50;31.50;;;12.93;;
70920;SDS011;58572;48.110;19.838;2023-02-11T05:24:10;19.73;;;8.90;;
70920;SDS011;58572;48.110;19.838;2023-02-11T05:26:37;23.38;;;9.80;;
70920;SDS011;58572;48.110;19.838;2023-02-11T05:29:04;31.45;;;14.07;;
70920;SDS011;58572;48.110;19.838;2023-02-11T05:31:31;27.83;;;12.73;;
70920;SDS011;58572;48.110;19.838;2023-02-11T05:33:59;36.50;;;14.38;;
70920;SDS011;58572;48.110;19.838;2023-02-11T05:36:28;35.33;;;12.75;;
70920;SDS011;58572;48.110;19.838;2023-02-11T05:38:56;22.50;;;9.63;;
70920;SDS011;58572;48.110;19.838;2023-02-11T05:41:23;31.52;;;14.00;;
70920;SDS011;58572;48.110;19.838;2023-02-11T05:43:50;22.20;;;10.90;;
70920;SDS011;58572;48.110;19.838;2023-02-11T05:46:16;31.58;;;12.27;;
70920;SDS011;58572;48.110;19.838;2023-02-11T05:48:43;39.95;;;14.25;;
70920;SDS011;58572;48.110;19.838;2023-02-11T05:51:12;28.50;;;13.98;;
70920;SDS011;58572;48.110;19.838;2023-02-11T05:53:39;25.20;;;10.90;;
70920;SDS011;58572;48.110;19.838;2023-02-11T05:56:06;28.65;;;11.43;;
70920;SDS011;58572;48.110;19.838;2023-02-11T05:58:34;35.40;;;16.20;;
70920;SDS011;58572;48.110;19.838;2023-02-11T06:03:29;15.90;;;8.07;;
70920;SDS011;58572;48.110;19.838;2023-02-11T06:05:56;19.25;;;8.95;;
70920;SDS011;58572;48.110;19.838;2023-02-11T06:08:25;35.17;;;13.45;;
70920;SDS011;58572;48.110;19.838;2023-02-11T06:10:52;24.65;;;11.27;;
70920;SDS011;58572;48.110;19.838;2023-02-11T06:13:19;33.88;;;15.07;;
70920;SDS011;58572;48.110;19.838;2023-02-11T06:15:54;31.27;;;12.77;;
70920;SDS011;58572;48.110;19.838;2023-02-11T06:18:21;32.85;;;14.68;;
70920;SDS011;58572;48.110;19.838;2023-02-11T06:20:48;35.95;;;14.27;;
70920;SDS011;58572;48.110;19.838;2023-02-11T06:23:16;35.13;;;13.18;;
70920;SDS011;58572;48.110;19.838;2023-02-11T06:25:44;34.63;;;14.35;;
70920;SDS011;58572;48.110;19.838;2023-02-11T06:28:11;34.47;;;15.48;;
70920;SDS011;58572;48.110;19.838;2023-02-11T06:30:38;34.55;;;14.65;;
70920;SDS011;58572;48.110;19.838;2023-02-11T06:33:05;33.83;;;14.95;;
70920;SDS011;58572;48.110;19.838;2023-02-11T06:35:32;44.20;;;18.35;;
70920;SDS011;58572;48.110;19.838;2023-02-11T06:38:00;23.40;;;10.98;;
70920;SDS011;58572;48.110;19.838;2023-02-11T06:40:27;41.30;;;17.10;;
70920;SDS011;58572;48.110;19.838;2023-02-11T06:42:56;36.92;;;16.13;;
70920;SDS011;58572;48.110;19.838;2023-02-11T06:50:16;32.22;;;12.63;;
70920;SDS011;58572;48.110;19.838;2023-02-11T06:52:44;37.28;;;14.25;;
70920;SDS011;58572;48.110;19.838;2023-02-11T06:55:11;41.60;;;16.15;;
70920;SDS011;58572;48.110;19.838;2023-02-11T06:57:38;40.22;;;18.38;;
70920;SDS011;58572;48.110;19.838;2023-02-11T07:00:07;35.72;;;16.15;;
70920;SDS011;58572;48.110;19.838;2023-02-11T07:02:35;43.17;;;18.13;;
70920;SDS011;58572;48.110;19.838;2023-02-11T07:05:03;28.50;;;12.85;;
70920;SDS011;58572;48.110;19.838;2023-02-11T07:07:31;53.80;;;23.23;;
70920;SDS011;58572;48.110;19.838;2023-02-11T07:09:58;49.10;;;20.02;;
70920;SDS011;58572;48.110;19.838;2023-02-11T07:12:25;49.58;;;17.05;;
70920;SDS011;58572;48.110;19.838;2023-02-11T07:14:52;43.10;;;18.80;;
70920;SDS011;58572;48.110;19.838;2023-02-11T07:17:20;41.20;;;18.00;;
70920;SDS011;58572;48.110;19.838;2023-02-11T07:19:47;45.90;;;17.40;;
70920;SDS011;58572;48.110;19.838;2023-02-11T07:22:14;54.33;;;20.70;;
70920;SDS011;58572;48.110;19.838;2023-02-11T07:24:41;49.92;;;19.25;;
70920;SDS011;58572;48.110;19.838;2023-02-11T07:27:08;49.22;;;21.33;;
70920;SDS011;58572;48.110;19.838;2023-02-11T07:29:35;58.83;;;23.60;;
70920;SDS011;58572;48.110;19.838;2023-02-11T07:32:04;56.20;;;21.55;;
70920;SDS011;58572;48.110;19.838;2023-02-11T07:34:33;51.97;;;21.85;;
70920;SDS011;58572;48.110;19.838;2023-02-11T07:37:00;54.88;;;22.90;;
70920;SDS011;58572;48.110;19.838;2023-02-11T07:39:27;43.70;;;20.15;;
70920;SDS011;58572;48.110;19.838;2023-02-11T07:41:54;63.45;;;22.95;;
70920;SDS011;58572;48.110;19.838;2023-02-11T07:44:22;55.15;;;22.13;;
70920;SDS011;58572;48.110;19.838;2023-02-11T07:46:49;56.28;;;21.23;;
70920;SDS011;58572;48.110;19.838;2023-02-11T07:49:16;51.90;;;21.10;;
70920;SDS011;58572;48.110;19.838;2023-02-11T07:51:46;48.22;;;22.42;;
70920;SDS011;58572;48.110;19.838;2023-02-11T07:54:15;46.15;;;19.60;;
70920;SDS011;58572;48.110;19.838;2023-02-11T07:56:43;48.47;;;19.85;;
70920;SDS011;58572;48.110;19.838;2023-02-11T07:59:10;52.28;;;19.52;;
70920;SDS011;58572;48.110;19.838;2023-02-11T08:01:37;43.80;;;20.55;;
70920;SDS011;58572;48.110;19.838;2023-02-11T08:04:04;47.03;;;18.88;;
70920;SDS011;58572;48.110;19.838;2023-02-11T08:06:32;53.70;;;21.95;;
70920;SDS011;58572;48.110;19.838;2023-02-11T08:09:04;49.22;;;21.70;;
70920;SDS011;58572;48.110;19.838;2023-02-11T08:11:32;57.85;;;23.30;;
70920;SDS011;58572;48.110;19.838;2023-02-11T08:13:59;52.42;;;21.80;;
70920;SDS011;58572;48.110;19.838;2023-02-11T08:16:27;56.17;;;22.63;;
70920;SDS011;58572;48.110;19.838;2023-02-11T08:18:57;55.80;;;23.42;;
70920;SDS011;58572;48.110;19.838;2023-02-11T08:21:25;56.22;;;24.60;;
70920;SDS011;58572;48.110;19.838;2023-02-11T08:23:53;48.13;;;20.77;;
70920;SDS011;58572;48.110;19.838;2023-02-11T08:26:23;52.67;;;22.02;;
70920;SDS011;58572;48.110;19.838;2023-02-11T08:28:52;56.47;;;21.05;;
70920;SDS011;58572;48.110;19.838;2023-02-11T08:31:21;52.25;;;23.25;;
70920;SDS011;58572;48.110;19.838;2023-02-11T08:33:49;44.55;;;19.95;;
70920;SDS011;58572;48.110;19.838;2023-02-11T08:36:19;51.08;;;22.63;;
70920;SDS011;58572;48.110;19.838;2023-02-11T08:38:48;55.65;;;22.98;;
70920;SDS011;58572;48.110;19.838;2023-02-11T08:41:15;53.08;;;24.48;;
70920;SDS011;58572;48.110;19.838;2023-02-11T08:43:44;50.00;;;21.10;;
70920;SDS011;58572;48.110;19.838;2023-02-11T08:46:12;51.20;;;21.90;;
70920;SDS011;58572;48.110;19.838;2023-02-11T08:48:40;55.55;;;23.70;;
70920;SDS011;58572;48.110;19.838;2023-02-11T08:51:08;51.25;;;22.73;;
70920;SDS011;58572;48.110;19.838;2023-02-11T08:53:38;54.20;;;23.60;;
70920;SDS011;58572;48.110;19.838;2023-02-11T08:56:06;53.30;;;24.73;;
70920;SDS011;58572;48.110;19.838;2023-02-11T09:01:04;45.70;;;19.75;;
70920;SDS011;58572;48.110;19.838;2023-02-11T09:03:34;53.25;;;24.83;;
70920;SDS011;58572;48.110;19.838;2023-02-11T09:06:03;45.28;;;20.63;;
70920;SDS011;58572;48.110;19.838;2023-02-11T09:08:32;48.53;;;22.35;;
70920;SDS011;58572;48.110;19.838;2023-02-11T09:11:00;53.60;;;23.20;;
70920;SDS011;58572;48.110;19.838;2023-02-11T09:13:28;49.75;;;21.33;;
70920;SDS011;58572;48.110;19.838;2023-02-11T09:15:56;53.78;;;22.90;;
70920;SDS011;58572;48.110;19.838;2023-02-11T09:18:25;57.25;;;23.75;;
70920;SDS011;58572;48.110;19.838;2023-02-11T09:20:52;60.92;;;25.83;;
70920;SDS011;58572;48.110;19.838;2023-02-11T09:23:20;50.45;;;21.33;;
70920;SDS011;58572;48.110;19.838;2023-02-11T09:25:47;59.25;;;29.00;;
70920;SDS011;58572;48.110;19.838;2023-02-11T09:28:14;15.02;;;8.57;;
70920;SDS011;58572;48.110;19.838;2023-02-11T09:30:41;47.35;;;19.77;;
70920;SDS011;58572;48.110;19.838;2023-02-11T09:33:08;44.22;;;19.42;;
70920;SDS011;58572;48.110;19.838;2023-02-11T09:35:37;23.48;;;11.32;;
70920;SDS011;58572;48.110;19.838;2023-02-11T09:38:04;41.17;;;19.35;;
70920;SDS011;58572;48.110;19.838;2023-02-11T09:40:31;40.38;;;17.73;;
70920;SDS011;58572;48.110;19.838;2023-02-11T09:43:00;49.30;;;20.48;;
70920;SDS011;58572;48.110;19.838;2023-02-11T09:45:29;51.78;;;21.40;;
70920;SDS011;58572;48.110;19.838;2023-02-11T09:47:58;48.40;;;19.13;;
70920;SDS011;58572;48.110;19.838;2023-02-11T09:50:29;49.25;;;20.67;;
70920;SDS011;58572;48.110;19.838;2023-02-11T09:53:02;49.42;;;19.40;;
70920;SDS011;58572;48.110;19.838;2023-02-11T09:55:38;42.50;;;18.33;;
70920;SDS011;58572;48.110;19.838;2023-02-11T09:58:10;47.25;;;21.52;;
70920;SDS011;58572;48.110;19.838;2023-02-11T10:00:39;76.80;;;27.75;;
70920;SDS011;58572;48.110;19.838;2023-02-11T10:03:17;47.03;;;20.80;;
70920;SDS011;58572;48.110;19.838;2023-02-11T10:06:00;44.38;;;18.77;;
70920;SDS011;58572;48.110;19.838;2023-02-11T10:08:42;56.33;;;25.95;;
70920;SDS011;58572;48.110;19.838;2023-02-11T10:11:22;46.28;;;18.77;;
70920;SDS011;58572;48.110;19.838;2023-02-11T10:13:57;43.53;;;18.02;;
70920;SDS011;58572;48.110;19.838;2023-02-11T10:16:36;45.47;;;19.95;;
70920;SDS011;58572;48.110;19.838;2023-02-11T10:19:19;28.80;;;12.18;;
70920;SDS011;58572;48.110;19.838;2023-02-11T10:22:03;40.20;;;17.05;;
70920;SDS011;58572;48.110;19.838;2023-02-11T10:24:37;36.00;;;15.00;;
70920;SDS011;58572;48.110;19.838;2023-02-11T10:27:15;35.35;;;18.00;;
70920;SDS011;58572;48.110;19.838;2023-02-11T10:29:45;36.92;;;16.30;;
70920;SDS011;58572;48.110;19.838;2023-02-11T10:32:22;38.70;;;16.50;;
70920;SDS011;58572;48.110;19.838;2023-02-11T10:34:55;44.00;;;17.38;;
70920;SDS011;58572;48.110;19.838;2023-02-11T10:37:27;33.90;;;15.32;;
70920;SDS011;58572;48.110;19.838;2023-02-11T10:39:55;35.00;;;16.52;;
70920;SDS011;58572;48.110;19.838;2023-02-11T10:42:22;35.40;;;16.42;;
70920;SDS011;58572;48.110;19.838;2023-02-11T10:44:54;33.08;;;14.45;;
70920;SDS011;58572;48.110;19.838;2023-02-11T10:47:26;35.60;;;16.23;;
70920;SDS011;58572;48.110;19.838;2023-02-11T10:49:58;33.45;;;14.95;;
70920;SDS011;58572;48.110;19.838;2023-02-11T10:52:28;32.50;;;13.40;;
70920;SDS011;58572;48.110;19.838;2023-02-11T10:54:58;34.65;;;15.27;;
70920;SDS011;58572;48.110;19.838;2023-02-11T10:57:29;39.78;;;16.88;;
70920;SDS011;58572;48.110;19.838;2023-02-11T11:00:00;33.38;;;15.15;;
70920;SDS011;58572;48.110;19.838;2023-02-11T11:02:32;29.15;;;14.98;;
70920;SDS011;58572;48.110;19.838;2023-02-11T11:05:03;16.30;;;9.52;;
70920;SDS011;58572;48.110;19.838;2023-02-11T11:07:41;30.92;;;14.88;;
70920;SDS011;58572;48.110;19.838;2023-02-11T11:12:56;32.45;;;15.05;;
70920;SDS011;58572;48.110;19.838;2023-02-11T11:15:23;35.20;;;15.27;;
70920;SDS011;58572;48.110;19.838;2023-02-11T11:18:07;6.82;;;4.45;;
70920;SDS011;58572;48.110;19.838;2023-02-11T11:20:36;32.90;;;14.57;;
70920;SDS011;58572;48.110;19.838;2023-02-11T11:23:08;31.48;;;15.45;;
70920;SDS011;58572;48.110;19.838;2023-02-11T11:25:43;31.60;;;14.68;;
70920;SDS011;58572;48.110;19.838;2023-02-11T11:28:24;32.17;;;14.80;;
70920;SDS011;58572;48.110;19.838;2023-02-11T11:30:53;32.10;;;15.77;;
70920;SDS011;58572;48.110;19.838;2023-02-11T11:33:23;35.03;;;15.75;;
70920;SDS011;58572;48.110;19.838;2023-02-11T11:35:54;31.27;;;13.38;;
70920;SDS011;58572;48.110;19.838;2023-02-11T11:38:26;32.35;;;17.13;;
70920;SDS011;58572;48.110;19.838;2023-02-11T11:43:56;33.28;;;15.93;;
70920;SDS011;58572;48.110;19.838;2023-02-11T11:46:29;36.90;;;15.88;;
70920;SDS011;58572;48.110;19.838;2023-02-11T11:51:50;30.33;;;14.52;;
70920;SDS011;58572;48.110;19.838;2023-02-11T11:54:24;32.08;;;15.75;;
70920;SDS011;58572;48.110;19.838;2023-02-11T11:56:55;31.67;;;15.52;;
70920;SDS011;58572;48.110;19.838;2023-02-11T11:59:26;29.33;;;13.85;;
70920;SDS011;58572;48.110;19.838;2023-02-11T12:04:31;32.50;;;16.00;;
70920;SDS011;58572;48.110;19.838;2023-02-11T12:07:22;32.83;;;15.73;;
70920;SDS011;58572;48.110;19.838;2023-02-11T12:10:06;32.33;;;13.55;;
70920;SDS011;58572;48.110;19.838;2023-02-11T12:12:52;36.20;;;16.55;;
70920;SDS011;58572;48.110;19.838;2023-02-11T12:15:30;34.58;;;15.80;;
70920;SDS011;58572;48.110;19.838;2023-02-11T12:18:07;30.88;;;14.02;;
70920;SDS011;58572;48.110;19.838;2023-02-11T12:21:04;20.92;;;11.02;;
70920;SDS011;58572;48.110;19.838;2023-02-11T12:23:46;30.77;;;14.68;;
70920;SDS011;58572;48.110;19.838;2023-02-11T12:26:25;20.77;;;9.35;;
70920;SDS011;58572;48.110;19.838;2023-02-11T12:29:01;31.83;;;14.48;;
70920;SDS011;58572;48.110;19.838;2023-02-11T12:31:43;36.47;;;15.68;;
70920;SDS011;58572;48.110;19.838;2023-02-11T12:34:32;33.22;;;16.10;;
70920;SDS011;58572;48.110;19.838;2023-02-11T12:37:13;33.65;;;15.07;;
70920;SDS011;58572;48.110;19.838;2023-02-11T12:45:52;17.25;;;7.32;;
70920;SDS011;58572;48.110;19.838;2023-02-11T12:48:51;36.70;;;14.80;;
70920;SDS011;58572;48.110;19.838;2023-02-11T12:51:36;31.75;;;15.68;;
70920;SDS011;58572;48.110;19.838;2023-02-11T12:54:17;34.88;;;15.25;;
70920;SDS011;58572;48.110;19.838;2023-02-11T12:56:51;32.45;;;14.73;;
70920;SDS011;58572;48.110;19.838;2023-02-11T12:59:26;38.10;;;16.17;;
70920;SDS011;58572;48.110;19.838;2023-02-11T13:02:02;23.30;;;10.60;;
70920;SDS011;58572;48.110;19.838;2023-02-11T13:04:32;34.75;;;15.75;;
70920;SDS011;58572;48.110;19.838;2023-02-11T13:07:07;33.47;;;15.43;;
70920;SDS011;58572;48.110;19.838;2023-02-11T13:09:40;33.85;;;15.55;;
70920;SDS011;58572;48.110;19.838;2023-02-11T13:12:09;33.58;;;15.15;;
70920;SDS011;58572;48.110;19.838;2023-02-11T13:14:56;34.53;;;14.18;;
70920;SDS011;58572;48.110;19.838;2023-02-11T13:17:31;33.83;;;15.30;;
70920;SDS011;58572;48.110;19.838;2023-02-11T13:20:04;30.08;;;14.88;;
70920;SDS011;58572;48.110;19.838;2023-02-11T13:22:42;35.15;;;15.02;;
70920;SDS011;58572;48.110;19.838;2023-02-11T13:25:15;31.25;;;14.80;;
70920;SDS011;58572;48.110;19.838;2023-02-11T13:27:50;31.95;;;15.00;;
70920;SDS011;58572;48.110;19.838;2023-02-11T13:30:24;39.45;;;15.23;;
70920;SDS011;58572;48.110;19.838;2023-02-11T13:33:05;32.67;;;14.32;;
70920;SDS011;58572;48.110;19.838;2023-02-11T13:35:44;33.22;;;14.77;;
70920;SDS011;58572;48.110;19.838;2023-02-11T13:38:18;32.30;;;15.05;;
70920;SDS011;58572;48.110;19.838;2023-02-11T13:40:57;38.55;;;16.42;;
70920;SDS011;58572;48.110;19.838;2023-02-11T13:43:28;37.35;;;15.73;;
70920;SDS011;58572;48.110;19.838;2023-02-11T13:45:57;26.75;;;12.98;;
70920;SDS011;58572;48.110;19.838;2023-02-11T13:48:28;35.55;;;15.27;;
70920;SDS011;58572;48.110;19.838;2023-02-11T13:50:57;34.28;;;15.23;;
70920;SDS011;58572;48.110;19.838;2023-02-11T13:53:27;34.38;;;13.55;;
70920;SDS011;58572;48.110;19.838;2023-02-11T13:56:04;29.90;;;12.50;;
70920;SDS011;58572;48.110;19.838;2023-02-11T13:58:34;26.95;;;12.30;;
70920;SDS011;58572;48.110;19.838;2023-02-11T14:01:04;20.65;;;9.77;;
70920;SDS011;58572;48.110;19.838;2023-02-11T14:03:34;23.83;;;10.90;;
70920;SDS011;58572;48.110;19.838;2023-02-11T14:06:24;36.40;;;14.73;;
70920;SDS011;58572;48.110;19.838;2023-02-11T14:17:46;39.47;;;17.05;;
70920;SDS011;58572;48.110;19.838;2023-02-11T14:23:17;38.13;;;16.05;;
70920;SDS011;58572;48.110;19.838;2023-02-11T14:28:58;36.15;;;17.38;;
70920;SDS011;58572;48.110;19.838;2023-02-11T14:31:33;22.10;;;10.45;;
70920;SDS011;58572;48.110;19.838;2023-02-11T14:37:14;73.28;;;26.35;;
70920;SDS011;58572;48.110;19.838;2023-02-11T14:39:52;44.10;;;18.63;;
70920;SDS011;58572;48.110;19.838;2023-02-11T14:42:27;42.72;;;15.75;;
70920;SDS011;58572;48.110;19.838;2023-02-11T14:44:56;46.58;;;18.48;;
70920;SDS011;58572;48.110;19.838;2023-02-11T14:47:30;39.13;;;16.48;;
70920;SDS011;58572;48.110;19.838;2023-02-11T14:50:13;22.98;;;10.13;;
70920;SDS011;58572;48.110;19.838;2023-02-11T14:52:52;36.65;;;16.00;;
70920;SDS011;58572;48.110;19.838;2023-02-11T14:55:31;39.05;;;16.30;;
70920;SDS011;58572;48.110;19.838;2023-02-11T15:00:32;32.55;;;15.95;;
70920;SDS011;58572;48.110;19.838;2023-02-11T15:02:59;28.13;;;14.50;;
70920;SDS011;58572;48.110;19.838;2023-02-11T15:05:26;33.47;;;14.93;;
70920;SDS011;58572;48.110;19.838;2023-02-11T15:07:57;43.17;;;17.80;;
70920;SDS011;58572;48.110;19.838;2023-02-11T15:10:27;15.00;;;7.85;;
70920;SDS011;58572;48.110;19.838;2023-02-11T15:12:57;35.42;;;16.35;;
70920;SDS011;58572;48.110;19.838;2023-02-11T15:15:26;36.40;;;15.90;;
70920;SDS011;58572;48.110;19.838;2023-02-11T15:17:54;36.05;;;16.85;;
70920;SDS011;58572;48.110;19.838;2023-02-11T15:20:25;33.17;;;14.73;;
70920;SDS011;58572;48.110;19.838;2023-02-11T15:22:56;34.13;;;14.35;;
70920;SDS011;58572;48.110;19.838;2023-02-11T15:25:25;31.27;;;16.20;;
70920;SDS011;58572;48.110;19.838;2023-02-11T15:27:54;39.10;;;15.88;;